sensor_id;sensor_type;location;lat;lon;timestamp;temperature;humidity
15359;DHT22;7779;49.596;11.070;2022-10-31T00:01:22;11.40;76.00
15359;DHT22;7779;49.596;11.070;2022-10-31T00:03:50;11.40;76.90
15359;DHT22;7779;49.596;11.070;2022-10-31T00:06:16;11.40;76.60
15359;DHT22;7779;49.596;11.070;2022-10-31T00:08:52;11.40;76.70
15359;DHT22;7779;49.596;11.070;2022-10-31T00:11:19;11.30;76.10
15359;DHT22;7779;49.596;11.070;2022-10-31T00:13:45;11.30;76.60
15359;DHT22;7779;49.596;11.070;2022-10-31T00:16:18;11.30;76.60
15359;DHT22;7779;49.596;11.070;2022-10-31T00:18:50;11.20;76.00
15359;DHT22;7779;49.596;11.070;2022-10-31T00:21:17;11.20;76.80
15359;DHT22;7779;49.596;11.070;2022-10-31T00:23:42;11.20;76.60
15359;DHT22;7779;49.596;11.070;2022-10-31T00:26:08;11.20;76.70
15359;DHT22;7779;49.596;11.070;2022-10-31T00:28:34;11.20;76.70
15359;DHT22;7779;49.596;11.070;2022-10-31T00:31:01;11.10;76.70
15359;DHT22;7779;49.596;11.070;2022-10-31T00:33:29;11.10;76.70
15359;DHT22;7779;49.596;11.070;2022-10-31T00:35:55;11.10;76.80
15359;DHT22;7779;49.596;11.070;2022-10-31T00:38:22;11.10;76.90
15359;DHT22;7779;49.596;11.070;2022-10-31T00:40:48;11.10;76.90
15359;DHT22;7779;49.596;11.070;2022-10-31T00:43:15;11.00;76.90
15359;DHT22;7779;49.596;11.070;2022-10-31T00:45:42;11.00;76.90
15359;DHT22;7779;49.596;11.070;2022-10-31T00:48:08;11.00;77.00
15359;DHT22;7779;49.596;11.070;2022-10-31T00:50:35;11.00;77.80
15359;DHT22;7779;49.596;11.070;2022-10-31T00:53:01;11.00;77.00
15359;DHT22;7779;49.596;11.070;2022-10-31T00:55:26;11.00;77.00
15359;DHT22;7779;49.596;11.070;2022-10-31T00:57:52;10.90;76.90
15359;DHT22;7779;49.596;11.070;2022-10-31T01:00:18;10.90;77.70
15359;DHT22;7779;49.596;11.070;2022-10-31T01:02:45;10.90;76.90
15359;DHT22;7779;49.596;11.070;2022-10-31T01:05:11;10.90;76.90
15359;DHT22;7779;49.596;11.070;2022-10-31T01:07:37;10.80;76.80
15359;DHT22;7779;49.596;11.070;2022-10-31T01:10:09;10.80;77.60
15359;DHT22;7779;49.596;11.070;2022-10-31T01:12:40;10.80;76.80
15359;DHT22;7779;49.596;11.070;2022-10-31T01:15:08;10.80;76.80
15359;DHT22;7779;49.596;11.070;2022-10-31T01:17:35;10.70;76.70
15359;DHT22;7779;49.596;11.070;2022-10-31T01:20:02;10.70;76.70
15359;DHT22;7779;49.596;11.070;2022-10-31T01:22:30;10.70;76.70
15359;DHT22;7779;49.596;11.070;2022-10-31T01:24:59;10.70;76.70
15359;DHT22;7779;49.596;11.070;2022-10-31T01:27:25;10.70;76.70
15359;DHT22;7779;49.596;11.070;2022-10-31T01:29:51;10.60;76.70
15359;DHT22;7779;49.596;11.070;2022-10-31T01:32:17;10.60;76.70
15359;DHT22;7779;49.596;11.070;2022-10-31T01:34:44;10.60;76.70
15359;DHT22;7779;49.596;11.070;2022-10-31T01:37:12;10.60;76.70
15359;DHT22;7779;49.596;11.070;2022-10-31T01:39:38;10.60;76.60
15359;DHT22;7779;49.596;11.070;2022-10-31T01:42:03;10.50;76.50
15359;DHT22;7779;49.596;11.070;2022-10-31T01:47:07;10.50;76.50
15359;DHT22;7779;49.596;11.070;2022-10-31T01:49:45;10.50;77.00
15359;DHT22;7779;49.596;11.070;2022-10-31T01:55:03;10.40;76.70
15359;DHT22;7779;49.596;11.070;2022-10-31T01:57:32;10.40;76.60
15359;DHT22;7779;49.596;11.070;2022-10-31T02:00:03;10.30;76.50
15359;DHT22;7779;49.596;11.070;2022-10-31T02:02:38;10.30;76.60
15359;DHT22;7779;49.596;11.070;2022-10-31T02:05:07;10.30;76.60
15359;DHT22;7779;49.596;11.070;2022-10-31T02:07:50;10.30;76.70
15359;DHT22;7779;49.596;11.070;2022-10-31T02:10:27;10.30;77.00
15359;DHT22;7779;49.596;11.070;2022-10-31T02:12:56;10.20;76.70
15359;DHT22;7779;49.596;11.070;2022-10-31T02:15:25;10.20;76.70
15359;DHT22;7779;49.596;11.070;2022-10-31T02:17:51;10.20;76.70
15359;DHT22;7779;49.596;11.070;2022-10-31T02:20:20;10.20;77.40
15359;DHT22;7779;49.596;11.070;2022-10-31T02:26:20;10.10;77.60
15359;DHT22;7779;49.596;11.070;2022-10-31T02:35:28;10.10;77.50
15359;DHT22;7779;49.596;11.070;2022-10-31T02:47:01;10.10;77.80
15359;DHT22;7779;49.596;11.070;2022-10-31T02:49:55;10.10;78.00
15359;DHT22;7779;49.596;11.070;2022-10-31T02:52:28;10.10;78.20
15359;DHT22;7779;49.596;11.070;2022-10-31T02:55:12;10.10;77.30
15359;DHT22;7779;49.596;11.070;2022-10-31T02:58:06;10.10;77.80
15359;DHT22;7779;49.596;11.070;2022-10-31T03:09:41;10.00;77.50
15359;DHT22;7779;49.596;11.070;2022-10-31T03:12:27;10.00;77.20
15359;DHT22;7779;49.596;11.070;2022-10-31T03:18:04;10.00;78.10
15359;DHT22;7779;49.596;11.070;2022-10-31T03:20:58;10.00;77.50
15359;DHT22;7779;49.596;11.070;2022-10-31T03:23:36;10.00;78.20
15359;DHT22;7779;49.596;11.070;2022-10-31T03:26:06;10.00;77.30
15359;DHT22;7779;49.596;11.070;2022-10-31T03:28:49;10.00;77.30
15359;DHT22;7779;49.596;11.070;2022-10-31T03:31:23;10.00;77.70
15359;DHT22;7779;49.596;11.070;2022-10-31T03:33:56;9.90;78.30
15359;DHT22;7779;49.596;11.070;2022-10-31T03:36:30;10.00;77.40
15359;DHT22;7779;49.596;11.070;2022-10-31T03:39:01;9.90;78.30
15359;DHT22;7779;49.596;11.070;2022-10-31T03:41:34;9.90;78.30
15359;DHT22;7779;49.596;11.070;2022-10-31T03:44:08;9.90;78.30
15359;DHT22;7779;49.596;11.070;2022-10-31T03:46:39;9.90;78.30
15359;DHT22;7779;49.596;11.070;2022-10-31T03:49:06;9.80;78.10
15359;DHT22;7779;49.596;11.070;2022-10-31T03:54:14;9.80;78.20
15359;DHT22;7779;49.596;11.070;2022-10-31T03:59:51;9.80;78.20
15359;DHT22;7779;49.596;11.070;2022-10-31T04:02:25;9.70;78.00
15359;DHT22;7779;49.596;11.070;2022-10-31T04:04:56;9.70;77.80
15359;DHT22;7779;49.596;11.070;2022-10-31T04:07:25;9.70;77.90
15359;DHT22;7779;49.596;11.070;2022-10-31T04:09:56;9.70;77.90
15359;DHT22;7779;49.596;11.070;2022-10-31T04:12:25;9.60;77.90
15359;DHT22;7779;49.596;11.070;2022-10-31T04:15:12;9.60;77.90
15359;DHT22;7779;49.596;11.070;2022-10-31T04:17:42;9.60;77.90
15359;DHT22;7779;49.596;11.070;2022-10-31T04:20:10;9.60;78.10
15359;DHT22;7779;49.596;11.070;2022-10-31T04:22:36;9.50;78.00
15359;DHT22;7779;49.596;11.070;2022-10-31T04:25:02;9.50;78.00
15359;DHT22;7779;49.596;11.070;2022-10-31T04:27:28;9.50;78.10
15359;DHT22;7779;49.596;11.070;2022-10-31T04:29:54;9.50;78.10
15359;DHT22;7779;49.596;11.070;2022-10-31T04:32:19;9.50;78.20
15359;DHT22;7779;49.596;11.070;2022-10-31T04:34:45;9.50;78.30
15359;DHT22;7779;49.596;11.070;2022-10-31T04:37:11;9.50;78.30
15359;DHT22;7779;49.596;11.070;2022-10-31T04:39:37;9.50;78.40
15359;DHT22;7779;49.596;11.070;2022-10-31T04:42:21;9.40;78.30
15359;DHT22;7779;49.596;11.070;2022-10-31T04:44:46;9.40;78.30
15359;DHT22;7779;49.596;11.070;2022-10-31T04:47:13;9.40;78.30
15359;DHT22;7779;49.596;11.070;2022-10-31T04:49:39;9.40;79.10
15359;DHT22;7779;49.596;11.070;2022-10-31T04:52:06;9.40;79.10
15359;DHT22;7779;49.596;11.070;2022-10-31T04:54:34;9.40;78.40
15359;DHT22;7779;49.596;11.070;2022-10-31T04:57:18;9.40;78.40
15359;DHT22;7779;49.596;11.070;2022-10-31T04:59:45;9.40;78.40
15359;DHT22;7779;49.596;11.070;2022-10-31T05:02:11;9.30;78.20
15359;DHT22;7779;49.596;11.070;2022-10-31T05:04:44;9.30;78.20
15359;DHT22;7779;49.596;11.070;2022-10-31T05:07:10;9.30;78.20
15359;DHT22;7779;49.596;11.070;2022-10-31T05:09:35;9.30;78.20
15359;DHT22;7779;49.596;11.070;2022-10-31T05:12:01;9.30;78.20
15359;DHT22;7779;49.596;11.070;2022-10-31T05:14:45;9.30;78.30
15359;DHT22;7779;49.596;11.070;2022-10-31T05:17:30;9.20;78.20
15359;DHT22;7779;49.596;11.070;2022-10-31T05:20:17;9.20;78.20
15359;DHT22;7779;49.596;11.070;2022-10-31T05:23:02;9.20;78.10
15359;DHT22;7779;49.596;11.070;2022-10-31T05:25:29;9.10;78.00
15359;DHT22;7779;49.596;11.070;2022-10-31T05:27:56;9.10;78.00
15359;DHT22;7779;49.596;11.070;2022-10-31T05:30:28;9.10;78.00
15359;DHT22;7779;49.596;11.070;2022-10-31T05:32:55;9.10;78.00
15359;DHT22;7779;49.596;11.070;2022-10-31T05:35:40;9.10;78.00
15359;DHT22;7779;49.596;11.070;2022-10-31T05:38:25;9.00;77.90
15359;DHT22;7779;49.596;11.070;2022-10-31T05:40:56;9.10;77.90
15359;DHT22;7779;49.596;11.070;2022-10-31T05:43:27;9.00;78.00
15359;DHT22;7779;49.596;11.070;2022-10-31T05:45:55;9.00;77.80
15359;DHT22;7779;49.596;11.070;2022-10-31T05:48:59;9.00;77.80
15359;DHT22;7779;49.596;11.070;2022-10-31T05:51:43;9.00;77.90
15359;DHT22;7779;49.596;11.070;2022-10-31T05:54:09;8.90;78.00
15359;DHT22;7779;49.596;11.070;2022-10-31T05:56:37;8.90;78.00
15359;DHT22;7779;49.596;11.070;2022-10-31T05:59:02;8.90;78.10
15359;DHT22;7779;49.596;11.070;2022-10-31T06:01:28;8.90;78.30
15359;DHT22;7779;49.596;11.070;2022-10-31T06:03:57;8.90;78.40
15359;DHT22;7779;49.596;11.070;2022-10-31T06:06:23;8.90;78.50
15359;DHT22;7779;49.596;11.070;2022-10-31T06:08:49;8.90;78.60
15359;DHT22;7779;49.596;11.070;2022-10-31T06:11:19;8.90;78.70
15359;DHT22;7779;49.596;11.070;2022-10-31T06:14:04;8.90;78.80
15359;DHT22;7779;49.596;11.070;2022-10-31T06:16:45;8.90;78.90
15359;DHT22;7779;49.596;11.070;2022-10-31T06:19:31;8.90;79.00
15359;DHT22;7779;49.596;11.070;2022-10-31T06:21:58;8.90;79.00
15359;DHT22;7779;49.596;11.070;2022-10-31T06:24:23;8.90;79.00
15359;DHT22;7779;49.596;11.070;2022-10-31T06:26:52;9.00;79.20
15359;DHT22;7779;49.596;11.070;2022-10-31T06:29:17;8.90;80.10
15359;DHT22;7779;49.596;11.070;2022-10-31T06:32:15;9.00;79.30
15359;DHT22;7779;49.596;11.070;2022-10-31T06:34:43;9.00;79.40
15359;DHT22;7779;49.596;11.070;2022-10-31T06:37:12;9.00;79.50
15359;DHT22;7779;49.596;11.070;2022-10-31T06:39:40;9.00;80.50
15359;DHT22;7779;49.596;11.070;2022-10-31T06:42:09;9.00;79.80
15359;DHT22;7779;49.596;11.070;2022-10-31T06:44:34;9.10;79.90
15359;DHT22;7779;49.596;11.070;2022-10-31T06:47:19;9.10;79.90
15359;DHT22;7779;49.596;11.070;2022-10-31T06:49:56;9.10;79.90
15359;DHT22;7779;49.596;11.070;2022-10-31T06:52:23;9.20;80.00
15359;DHT22;7779;49.596;11.070;2022-10-31T06:54:50;9.20;79.90
15359;DHT22;7779;49.596;11.070;2022-10-31T06:57:15;9.20;79.90
15359;DHT22;7779;49.596;11.070;2022-10-31T06:59:41;9.30;80.20
15359;DHT22;7779;49.596;11.070;2022-10-31T07:02:17;9.30;80.20
15359;DHT22;7779;49.596;11.070;2022-10-31T07:04:43;9.40;80.30
15359;DHT22;7779;49.596;11.070;2022-10-31T07:07:12;9.40;80.40
15359;DHT22;7779;49.596;11.070;2022-10-31T07:09:38;9.50;80.60
15359;DHT22;7779;49.596;11.070;2022-10-31T07:12:05;9.50;80.60
15359;DHT22;7779;49.596;11.070;2022-10-31T07:14:34;9.60;80.70
15359;DHT22;7779;49.596;11.070;2022-10-31T07:17:01;9.60;80.70
15359;DHT22;7779;49.596;11.070;2022-10-31T07:19:33;9.70;81.50
15359;DHT22;7779;49.596;11.070;2022-10-31T07:21:59;9.70;80.80
15359;DHT22;7779;49.596;11.070;2022-10-31T07:24:28;9.80;80.90
15359;DHT22;7779;49.596;11.070;2022-10-31T07:27:13;9.80;81.00
15359;DHT22;7779;49.596;11.070;2022-10-31T07:29:38;9.90;81.20
15359;DHT22;7779;49.596;11.070;2022-10-31T07:32:04;10.00;80.30
15359;DHT22;7779;49.596;11.070;2022-10-31T07:34:31;10.00;80.30
15359;DHT22;7779;49.596;11.070;2022-10-31T07:37:03;10.10;80.50
15359;DHT22;7779;49.596;11.070;2022-10-31T07:39:30;10.20;80.70
15359;DHT22;7779;49.596;11.070;2022-10-31T07:41:58;10.30;81.60
15359;DHT22;7779;49.596;11.070;2022-10-31T07:44:24;10.30;81.00
15359;DHT22;7779;49.596;11.070;2022-10-31T07:47:19;10.40;81.10
15359;DHT22;7779;49.596;11.070;2022-10-31T07:50:26;10.50;81.20
15359;DHT22;7779;49.596;11.070;2022-10-31T07:53:13;10.60;81.40
15359;DHT22;7779;49.596;11.070;2022-10-31T07:55:52;10.80;81.50
15359;DHT22;7779;49.596;11.070;2022-10-31T07:58:19;10.80;81.40
15359;DHT22;7779;49.596;11.070;2022-10-31T08:00:46;10.90;81.40
15359;DHT22;7779;49.596;11.070;2022-10-31T08:03:18;11.00;81.60
15359;DHT22;7779;49.596;11.070;2022-10-31T08:06:13;11.10;81.60
15359;DHT22;7779;49.596;11.070;2022-10-31T08:09:06;11.20;81.70
15359;DHT22;7779;49.596;11.070;2022-10-31T08:11:32;11.30;81.80
15359;DHT22;7779;49.596;11.070;2022-10-31T08:14:00;11.40;81.80
15359;DHT22;7779;49.596;11.070;2022-10-31T08:16:27;11.50;81.90
15359;DHT22;7779;49.596;11.070;2022-10-31T08:18:59;11.70;82.00
15359;DHT22;7779;49.596;11.070;2022-10-31T08:21:27;11.60;82.30
15359;DHT22;7779;49.596;11.070;2022-10-31T08:23:54;11.80;82.60
15359;DHT22;7779;49.596;11.070;2022-10-31T08:26:22;11.90;82.70
15359;DHT22;7779;49.596;11.070;2022-10-31T08:31:19;12.10;82.20
15359;DHT22;7779;49.596;11.070;2022-10-31T08:33:44;12.20;82.70
15359;DHT22;7779;49.596;11.070;2022-10-31T08:36:45;12.30;82.70
15359;DHT22;7779;49.596;11.070;2022-10-31T08:39:16;12.50;83.00
15359;DHT22;7779;49.596;11.070;2022-10-31T08:41:42;12.50;82.50
15359;DHT22;7779;49.596;11.070;2022-10-31T08:44:11;12.60;82.60
15359;DHT22;7779;49.596;11.070;2022-10-31T08:46:37;12.70;82.50
15359;DHT22;7779;49.596;11.070;2022-10-31T08:49:03;12.80;82.10
15359;DHT22;7779;49.596;11.070;2022-10-31T08:51:29;12.80;82.40
15359;DHT22;7779;49.596;11.070;2022-10-31T08:53:55;12.90;82.40
15359;DHT22;7779;49.596;11.070;2022-10-31T08:56:59;13.00;83.10
15359;DHT22;7779;49.596;11.070;2022-10-31T08:59:39;13.20;82.50
15359;DHT22;7779;49.596;11.070;2022-10-31T09:02:13;13.20;82.40
15359;DHT22;7779;49.596;11.070;2022-10-31T09:04:39;13.30;82.30
15359;DHT22;7779;49.596;11.070;2022-10-31T09:07:05;13.40;82.30
15359;DHT22;7779;49.596;11.070;2022-10-31T09:09:31;13.50;82.10
15359;DHT22;7779;49.596;11.070;2022-10-31T09:11:57;13.50;82.10
15359;DHT22;7779;49.596;11.070;2022-10-31T09:14:42;13.60;81.90
15359;DHT22;7779;49.596;11.070;2022-10-31T09:17:21;13.70;82.00
15359;DHT22;7779;49.596;11.070;2022-10-31T09:20:10;13.70;81.90
15359;DHT22;7779;49.596;11.070;2022-10-31T09:22:37;13.90;82.10
15359;DHT22;7779;49.596;11.070;2022-10-31T09:25:03;13.90;81.70
15359;DHT22;7779;49.596;11.070;2022-10-31T09:27:29;14.00;82.50
15359;DHT22;7779;49.596;11.070;2022-10-31T09:29:56;14.20;82.80
15359;DHT22;7779;49.596;11.070;2022-10-31T09:32:22;14.20;82.70
15359;DHT22;7779;49.596;11.070;2022-10-31T09:34:48;14.30;82.80
15359;DHT22;7779;49.596;11.070;2022-10-31T09:37:18;14.50;83.00
15359;DHT22;7779;49.596;11.070;2022-10-31T09:39:44;14.50;83.00
15359;DHT22;7779;49.596;11.070;2022-10-31T09:42:56;14.70;83.10
15359;DHT22;7779;49.596;11.070;2022-10-31T09:45:47;14.80;83.30
15359;DHT22;7779;49.596;11.070;2022-10-31T09:48:52;14.90;83.00
15359;DHT22;7779;49.596;11.070;2022-10-31T09:51:40;15.10;83.00
15359;DHT22;7779;49.596;11.070;2022-10-31T09:57:13;15.30;82.80
15359;DHT22;7779;49.596;11.070;2022-10-31T09:59:46;15.40;82.90
15359;DHT22;7779;49.596;11.070;2022-10-31T10:02:24;15.60;83.00
15359;DHT22;7779;49.596;11.070;2022-10-31T10:05:01;15.70;83.00
15359;DHT22;7779;49.596;11.070;2022-10-31T10:17:11;16.30;82.70
15359;DHT22;7779;49.596;11.070;2022-10-31T10:25:44;16.70;81.80
15359;DHT22;7779;49.596;11.070;2022-10-31T10:28:30;16.80;82.20
15359;DHT22;7779;49.596;11.070;2022-10-31T10:39:11;17.30;81.40
15359;DHT22;7779;49.596;11.070;2022-10-31T10:41:46;17.40;80.90
15359;DHT22;7779;49.596;11.070;2022-10-31T10:44:33;17.50;80.90
15359;DHT22;7779;49.596;11.070;2022-10-31T10:47:19;17.60;81.70
15359;DHT22;7779;49.596;11.070;2022-10-31T10:50:19;17.70;80.90
15359;DHT22;7779;49.596;11.070;2022-10-31T10:53:06;17.90;80.40
15359;DHT22;7779;49.596;11.070;2022-10-31T10:55:55;18.00;80.20
15359;DHT22;7779;49.596;11.070;2022-10-31T10:58:25;18.10;80.20
15359;DHT22;7779;49.596;11.070;2022-10-31T11:00:52;18.20;80.50
15359;DHT22;7779;49.596;11.070;2022-10-31T11:03:20;18.30;80.10
15359;DHT22;7779;49.596;11.070;2022-10-31T11:05:52;18.40;80.00
15359;DHT22;7779;49.596;11.070;2022-10-31T11:08:25;18.50;79.40
15359;DHT22;7779;49.596;11.070;2022-10-31T11:11:08;18.60;79.00
15359;DHT22;7779;49.596;11.070;2022-10-31T11:14:05;18.70;78.70
15359;DHT22;7779;49.596;11.070;2022-10-31T11:16:42;18.80;78.50
15359;DHT22;7779;49.596;11.070;2022-10-31T11:19:26;18.90;78.90
15359;DHT22;7779;49.596;11.070;2022-10-31T11:21:53;19.00;78.40
15359;DHT22;7779;49.596;11.070;2022-10-31T11:24:24;19.00;78.70
15359;DHT22;7779;49.596;11.070;2022-10-31T11:27:09;19.00;78.10
15359;DHT22;7779;49.596;11.070;2022-10-31T11:29:39;19.20;76.90
15359;DHT22;7779;49.596;11.070;2022-10-31T11:32:05;19.30;78.40
15359;DHT22;7779;49.596;11.070;2022-10-31T11:34:42;19.30;78.20
15359;DHT22;7779;49.596;11.070;2022-10-31T11:37:23;19.40;77.40
15359;DHT22;7779;49.596;11.070;2022-10-31T11:39:56;19.50;77.30
15359;DHT22;7779;49.596;11.070;2022-10-31T11:42:29;19.50;77.60
15359;DHT22;7779;49.596;11.070;2022-10-31T11:45:29;19.60;77.50
15359;DHT22;7779;49.596;11.070;2022-10-31T11:47:56;19.70;77.00
15359;DHT22;7779;49.596;11.070;2022-10-31T11:50:31;19.80;77.90
15359;DHT22;7779;49.596;11.070;2022-10-31T11:53:03;19.90;77.60
15359;DHT22;7779;49.596;11.070;2022-10-31T11:55:35;20.00;77.40
15359;DHT22;7779;49.596;11.070;2022-10-31T11:58:03;20.00;76.90
15359;DHT22;7779;49.596;11.070;2022-10-31T12:00:36;20.10;76.90
15359;DHT22;7779;49.596;11.070;2022-10-31T12:05:52;20.20;75.30
15359;DHT22;7779;49.596;11.070;2022-10-31T12:08:32;20.30;76.20
15359;DHT22;7779;49.596;11.070;2022-10-31T12:14:08;20.30;75.80
15359;DHT22;7779;49.596;11.070;2022-10-31T12:17:00;20.40;75.20
15359;DHT22;7779;49.596;11.070;2022-10-31T12:19:36;20.40;74.20
15359;DHT22;7779;49.596;11.070;2022-10-31T12:22:23;20.50;76.00
15359;DHT22;7779;49.596;11.070;2022-10-31T12:25:18;20.50;74.90
15359;DHT22;7779;49.596;11.070;2022-10-31T12:28:24;20.60;74.90
15359;DHT22;7779;49.596;11.070;2022-10-31T12:45:54;20.80;74.30
15359;DHT22;7779;49.596;11.070;2022-10-31T12:48:49;20.80;74.10
15359;DHT22;7779;49.596;11.070;2022-10-31T12:51:40;20.80;72.70
15359;DHT22;7779;49.596;11.070;2022-10-31T12:54:38;20.90;74.70
15359;DHT22;7779;49.596;11.070;2022-10-31T12:58:02;20.90;73.70
15359;DHT22;7779;49.596;11.070;2022-10-31T13:00:38;20.90;73.40
15359;DHT22;7779;49.596;11.070;2022-10-31T13:03:25;20.90;73.10
15359;DHT22;7779;49.596;11.070;2022-10-31T13:06:07;21.00;73.60
15359;DHT22;7779;49.596;11.070;2022-10-31T13:08:59;21.00;73.80
15359;DHT22;7779;49.596;11.070;2022-10-31T13:11:47;21.00;72.90
15359;DHT22;7779;49.596;11.070;2022-10-31T13:14:27;21.00;73.40
15359;DHT22;7779;49.596;11.070;2022-10-31T13:16:59;21.00;73.60
15359;DHT22;7779;49.596;11.070;2022-10-31T13:19:38;20.90;73.40
15359;DHT22;7779;49.596;11.070;2022-10-31T13:22:20;21.00;73.00
15359;DHT22;7779;49.596;11.070;2022-10-31T13:25:30;21.00;73.50
15359;DHT22;7779;49.596;11.070;2022-10-31T13:28:03;21.00;72.20
15359;DHT22;7779;49.596;11.070;2022-10-31T13:30:39;21.00;72.90
15359;DHT22;7779;49.596;11.070;2022-10-31T13:33:15;21.00;73.60
15359;DHT22;7779;49.596;11.070;2022-10-31T13:36:19;21.00;72.10
15359;DHT22;7779;49.596;11.070;2022-10-31T13:39:14;21.00;70.80
15359;DHT22;7779;49.596;11.070;2022-10-31T13:44:42;21.00;72.50
15359;DHT22;7779;49.596;11.070;2022-10-31T13:47:25;20.90;72.30
15359;DHT22;7779;49.596;11.070;2022-10-31T13:50:20;20.90;71.60
15359;DHT22;7779;49.596;11.070;2022-10-31T13:52:48;20.90;71.80
15359;DHT22;7779;49.596;11.070;2022-10-31T13:55:40;20.80;72.30
15359;DHT22;7779;49.596;11.070;2022-10-31T13:58:24;20.80;71.50
15359;DHT22;7779;49.596;11.070;2022-10-31T14:03:43;20.70;71.60
15359;DHT22;7779;49.596;11.070;2022-10-31T14:06:11;20.70;72.20
15359;DHT22;7779;49.596;11.070;2022-10-31T14:08:42;20.60;72.10
15359;DHT22;7779;49.596;11.070;2022-10-31T14:11:26;20.60;72.00
15359;DHT22;7779;49.596;11.070;2022-10-31T14:13:54;20.50;71.70
15359;DHT22;7779;49.596;11.070;2022-10-31T14:16:28;20.50;72.20
15359;DHT22;7779;49.596;11.070;2022-10-31T14:19:03;20.40;72.00
15359;DHT22;7779;49.596;11.070;2022-10-31T14:21:37;20.30;72.00
15359;DHT22;7779;49.596;11.070;2022-10-31T14:26:58;20.30;71.90
15359;DHT22;7779;49.596;11.070;2022-10-31T14:29:50;20.30;72.20
15359;DHT22;7779;49.596;11.070;2022-10-31T14:32:24;20.30;72.50
15359;DHT22;7779;49.596;11.070;2022-10-31T14:34:56;20.20;72.30
15359;DHT22;7779;49.596;11.070;2022-10-31T14:40:33;20.20;71.70
15359;DHT22;7779;49.596;11.070;2022-10-31T14:51:47;20.00;72.40
15359;DHT22;7779;49.596;11.070;2022-10-31T14:54:19;20.00;72.40
15359;DHT22;7779;49.596;11.070;2022-10-31T14:56:54;19.90;72.30
15359;DHT22;7779;49.596;11.070;2022-10-31T14:59:28;19.90;72.40
15359;DHT22;7779;49.596;11.070;2022-10-31T15:02:04;19.80;72.40
15359;DHT22;7779;49.596;11.070;2022-10-31T15:04:37;19.80;72.50
15359;DHT22;7779;49.596;11.070;2022-10-31T15:07:20;19.70;72.50
15359;DHT22;7779;49.596;11.070;2022-10-31T15:09:57;19.70;72.60
15359;DHT22;7779;49.596;11.070;2022-10-31T15:12:29;19.60;72.70
15359;DHT22;7779;49.596;11.070;2022-10-31T15:15:25;19.50;72.60
15359;DHT22;7779;49.596;11.070;2022-10-31T15:17:58;19.50;72.80
15359;DHT22;7779;49.596;11.070;2022-10-31T15:20:31;19.40;72.80
15359;DHT22;7779;49.596;11.070;2022-10-31T15:23:03;19.30;72.80
15359;DHT22;7779;49.596;11.070;2022-10-31T15:25:33;19.20;72.70
15359;DHT22;7779;49.596;11.070;2022-10-31T15:28:00;19.20;72.90
15359;DHT22;7779;49.596;11.070;2022-10-31T15:30:28;19.10;72.90
15359;DHT22;7779;49.596;11.070;2022-10-31T15:32:54;19.10;73.10
15359;DHT22;7779;49.596;11.070;2022-10-31T15:35:25;19.00;73.10
15359;DHT22;7779;49.596;11.070;2022-10-31T15:37:57;19.00;73.30
15359;DHT22;7779;49.596;11.070;2022-10-31T15:40:25;18.90;73.30
15359;DHT22;7779;49.596;11.070;2022-10-31T15:42:58;18.80;73.40
15359;DHT22;7779;49.596;11.070;2022-10-31T15:45:28;18.70;73.60
15359;DHT22;7779;49.596;11.070;2022-10-31T15:47:58;18.70;73.50
15359;DHT22;7779;49.596;11.070;2022-10-31T15:50:41;18.70;73.60
15359;DHT22;7779;49.596;11.070;2022-10-31T15:53:27;18.60;74.00
15359;DHT22;7779;49.596;11.070;2022-10-31T15:56:25;18.50;74.00
15359;DHT22;7779;49.596;11.070;2022-10-31T15:58:55;18.40;73.00
15359;DHT22;7779;49.596;11.070;2022-10-31T16:01:31;18.40;73.70
15359;DHT22;7779;49.596;11.070;2022-10-31T16:04:22;18.30;73.80
15359;DHT22;7779;49.596;11.070;2022-10-31T16:07:13;18.20;74.20
15359;DHT22;7779;49.596;11.070;2022-10-31T16:09:59;18.10;74.30
15359;DHT22;7779;49.596;11.070;2022-10-31T16:12:45;18.00;74.30
15359;DHT22;7779;49.596;11.070;2022-10-31T16:15:14;18.00;74.60
15359;DHT22;7779;49.596;11.070;2022-10-31T16:17:44;17.80;74.30
15359;DHT22;7779;49.596;11.070;2022-10-31T16:20:26;17.70;74.20
15359;DHT22;7779;49.596;11.070;2022-10-31T16:22:55;17.70;75.00
15359;DHT22;7779;49.596;11.070;2022-10-31T16:25:28;17.60;74.60
15359;DHT22;7779;49.596;11.070;2022-10-31T16:28:16;17.60;75.00
15359;DHT22;7779;49.596;11.070;2022-10-31T16:30:48;17.50;75.20
15359;DHT22;7779;49.596;11.070;2022-10-31T16:35:54;17.40;75.30
15359;DHT22;7779;49.596;11.070;2022-10-31T16:38:22;17.40;75.00
15359;DHT22;7779;49.596;11.070;2022-10-31T16:40:48;17.30;75.10
15359;DHT22;7779;49.596;11.070;2022-10-31T16:43:17;17.30;75.30
15359;DHT22;7779;49.596;11.070;2022-10-31T16:45:49;17.20;75.30
15359;DHT22;7779;49.596;11.070;2022-10-31T16:48:19;17.20;75.40
15359;DHT22;7779;49.596;11.070;2022-10-31T16:50:49;17.10;75.30
15359;DHT22;7779;49.596;11.070;2022-10-31T16:53:16;17.00;75.20
15359;DHT22;7779;49.596;11.070;2022-10-31T16:56:05;17.00;75.90
15359;DHT22;7779;49.596;11.070;2022-10-31T16:58:56;17.00;75.50
15359;DHT22;7779;49.596;11.070;2022-10-31T17:01:22;16.90;75.20
15359;DHT22;7779;49.596;11.070;2022-10-31T17:03:48;16.70;75.10
15359;DHT22;7779;49.596;11.070;2022-10-31T17:06:14;16.70;75.20
15359;DHT22;7779;49.596;11.070;2022-10-31T17:08:40;16.70;75.30
15359;DHT22;7779;49.596;11.070;2022-10-31T17:11:13;16.50;75.20
15359;DHT22;7779;49.596;11.070;2022-10-31T17:13:43;16.50;75.40
15359;DHT22;7779;49.596;11.070;2022-10-31T17:16:08;16.30;75.90
15359;DHT22;7779;49.596;11.070;2022-10-31T17:18:37;16.30;75.20
15359;DHT22;7779;49.596;11.070;2022-10-31T17:21:03;16.30;75.20
15359;DHT22;7779;49.596;11.070;2022-10-31T17:23:33;16.20;75.20
15359;DHT22;7779;49.596;11.070;2022-10-31T17:25:59;16.10;75.20
15359;DHT22;7779;49.596;11.070;2022-10-31T17:28:25;16.00;75.20
15359;DHT22;7779;49.596;11.070;2022-10-31T17:30:53;15.90;75.20
15359;DHT22;7779;49.596;11.070;2022-10-31T17:33:20;15.90;75.40
15359;DHT22;7779;49.596;11.070;2022-10-31T17:35:46;15.80;75.40
15359;DHT22;7779;49.596;11.070;2022-10-31T17:38:12;15.70;75.50
15359;DHT22;7779;49.596;11.070;2022-10-31T17:40:39;15.70;75.60
15359;DHT22;7779;49.596;11.070;2022-10-31T17:43:09;15.60;75.70
15359;DHT22;7779;49.596;11.070;2022-10-31T17:45:38;15.50;75.70
15359;DHT22;7779;49.596;11.070;2022-10-31T17:48:04;15.50;76.00
15359;DHT22;7779;49.596;11.070;2022-10-31T17:50:31;15.40;75.90
15359;DHT22;7779;49.596;11.070;2022-10-31T17:52:57;15.30;75.90
15359;DHT22;7779;49.596;11.070;2022-10-31T17:55:24;15.30;76.10
15359;DHT22;7779;49.596;11.070;2022-10-31T17:57:49;15.30;76.10
15359;DHT22;7779;49.596;11.070;2022-10-31T18:00:18;15.20;76.20
15359;DHT22;7779;49.596;11.070;2022-10-31T18:02:49;15.10;76.30
15359;DHT22;7779;49.596;11.070;2022-10-31T18:05:16;15.00;76.20
15359;DHT22;7779;49.596;11.070;2022-10-31T18:07:42;15.00;76.40
15359;DHT22;7779;49.596;11.070;2022-10-31T18:10:08;14.90;77.40
15359;DHT22;7779;49.596;11.070;2022-10-31T18:12:35;14.90;76.60